createdAt,value
2023-04-18T00:01:55.844Z,-1.52
2023-04-18T00:04:22.696Z,-1.26
2023-04-18T00:06:49.934Z,-1.40
2023-04-18T00:09:16.653Z,-1.46
2023-04-18T00:11:43.591Z,-1.27
2023-04-18T00:14:10.564Z,-1.35
2023-04-18T00:16:38.198Z,-1.50
2023-04-18T00:19:05.369Z,-1.32
2023-04-18T00:21:32.134Z,-1.31
2023-04-18T00:24:00.094Z,-1.48
2023-04-18T00:26:27.722Z,-1.48
2023-04-18T00:28:55.672Z,-1.29
2023-04-18T00:31:22.292Z,-1.48
2023-04-18T00:33:48.964Z,-1.64
2023-04-18T00:36:15.863Z,-1.48
2023-04-18T00:38:42.510Z,-1.63
2023-04-18T00:41:09.145Z,-1.70
2023-04-18T00:43:37.164Z,-1.57
2023-04-18T00:46:04.968Z,-1.38
2023-04-18T00:48:33.571Z,-1.47
2023-04-18T00:51:02.388Z,-1.46
2023-04-18T00:53:29.473Z,-1.28
2023-04-18T00:55:57.439Z,-1.41
2023-04-18T00:58:25.868Z,-1.47
2023-04-18T01:00:54.039Z,-1.26
2023-04-18T01:03:22.929Z,-1.54
2023-04-18T01:05:49.982Z,-1.88
2023-04-18T01:08:18.772Z,-1.70
2023-04-18T01:10:45.568Z,-1.60
2023-04-18T01:13:20.636Z,-1.62
2023-04-18T01:15:49.309Z,-1.47
2023-04-18T01:18:16.978Z,-1.30
2023-04-18T01:20:48.308Z,-1.40
2023-04-18T01:23:17.691Z,-1.40
2023-04-18T01:25:46.489Z,-1.29
2023-04-18T01:28:14.919Z,-1.54
2023-04-18T01:30:42.854Z,-1.55
2023-04-18T01:33:09.501Z,-1.35
2023-04-18T01:35:36.401Z,-1.67
2023-04-18T01:38:03.413Z,-1.77
2023-04-18T01:40:30.353Z,-1.55
2023-04-18T01:42:57.102Z,-1.73
2023-04-18T01:45:23.905Z,-1.70
2023-04-18T01:47:52.030Z,-1.58
2023-04-18T01:50:18.784Z,-1.52
2023-04-18T01:52:46.725Z,-1.81
2023-04-18T01:55:13.478Z,-1.82
2023-04-18T01:57:41.535Z,-1.64
2023-04-18T02:00:08.626Z,-1.73
2023-04-18T02:02:35.774Z,-1.68
2023-04-18T02:05:02.560Z,-1.52
2023-04-18T02:07:29.216Z,-1.43
2023-04-18T02:09:55.910Z,-1.53
2023-04-18T02:12:22.531Z,-1.55
2023-04-18T02:14:53.028Z,-1.54
2023-04-18T02:17:23.755Z,-1.51
2023-04-18T02:19:53.291Z,-1.54
2023-04-18T02:22:20.050Z,-1.57
2023-04-18T02:24:47.839Z,-1.78
2023-04-18T02:27:15.885Z,-1.87
2023-04-18T02:29:42.467Z,-1.76
2023-04-18T02:32:10.599Z,-1.79
2023-04-18T02:34:37.320Z,-1.84
2023-04-18T02:37:05.644Z,-1.65
2023-04-18T02:39:32.550Z,-1.50
2023-04-18T02:42:00.552Z,-1.71
2023-04-18T02:44:28.430Z,-1.92
2023-04-18T02:46:55.237Z,-1.84
2023-04-18T02:49:22.364Z,-1.96
2023-04-18T02:51:48.995Z,-2.03
2023-04-18T02:54:16.165Z,-1.91
2023-04-18T02:56:43.285Z,-1.81
2023-04-18T02:59:11.321Z,-1.99
2023-04-18T03:01:38.015Z,-2.07
2023-04-18T03:04:04.980Z,-1.81
2023-04-18T03:06:31.896Z,-1.99
2023-04-18T03:08:58.725Z,-2.22
2023-04-18T03:11:26.834Z,-2.06
2023-04-18T03:13:55.066Z,-1.94
2023-04-18T03:16:22.297Z,-2.02
2023-04-18T03:18:49.113Z,-1.91
2023-04-18T03:21:15.933Z,-1.77
2023-04-18T03:23:42.541Z,-2.05
2023-04-18T03:26:10.519Z,-2.08
2023-04-18T03:28:37.170Z,-1.97
2023-04-18T03:31:04.045Z,-1.99
2023-04-18T03:33:30.702Z,-1.94
2023-04-18T03:35:57.316Z,-1.94
2023-04-18T03:38:25.215Z,-1.83
2023-04-18T03:40:52.294Z,-1.94
2023-04-18T03:43:21.113Z,-1.89
2023-04-18T03:45:48.202Z,-1.72
2023-04-18T03:48:15.548Z,-1.71
2023-04-18T03:50:42.290Z,-1.87
2023-04-18T03:53:08.951Z,-1.90
2023-04-18T03:55:35.657Z,-1.65
2023-04-18T03:58:02.252Z,-1.61
2023-04-18T04:00:29.448Z,-1.85
2023-04-18T04:02:56.488Z,-1.73
2023-04-18T04:05:23.461Z,-1.99
2023-04-18T04:07:50.125Z,-2.24
2023-04-18T04:10:16.845Z,-2.30
2023-04-18T04:12:43.450Z,-2.15
2023-04-18T04:15:10.778Z,-2.28
2023-04-18T04:17:37.525Z,-2.20
2023-04-18T04:20:05.299Z,-2.11
2023-04-18T04:22:32.796Z,-2.02
2023-04-18T04:25:00.924Z,-1.95
2023-04-18T04:27:28.122Z,-1.95
2023-04-18T04:29:54.765Z,-1.82
2023-04-18T04:32:21.752Z,-1.86
2023-04-18T04:34:49.492Z,-1.86
2023-04-18T04:37:18.745Z,-1.68
2023-04-18T04:39:46.247Z,-1.58
2023-04-18T04:42:13.415Z,-1.51
2023-04-18T04:44:41.739Z,-1.69
2023-04-18T04:47:09.330Z,-1.56
2023-04-18T04:49:35.944Z,-1.57
2023-04-18T04:52:05.880Z,-1.58
2023-04-18T04:54:32.496Z,-1.47
2023-04-18T04:57:00.513Z,-1.47
2023-04-18T04:59:27.100Z,-1.44
2023-04-18T05:01:53.801Z,-1.43
2023-04-18T05:04:20.903Z,-1.23
2023-04-18T05:06:47.668Z,-1.31
2023-04-18T05:09:14.367Z,-1.23
2023-04-18T05:11:42.293Z,-1.05
2023-04-18T05:14:08.976Z,-0.99
2023-04-18T05:16:35.874Z,-1.03
2023-04-18T05:19:02.546Z,-0.88
2023-04-18T05:21:29.467Z,-0.71
2023-04-18T05:23:57.738Z,-0.80
2023-04-18T05:26:24.735Z,-0.83
2023-04-18T05:28:52.750Z,-0.61
2023-04-18T05:31:19.485Z,-0.59
2023-04-18T05:33:46.240Z,-0.60
2023-04-18T05:36:12.941Z,-0.40
2023-04-18T05:38:39.606Z,-0.20
2023-04-18T05:41:06.268Z,-0.18
2023-04-18T05:43:32.980Z,-0.06
2023-04-18T05:45:59.641Z,0.15
2023-04-18T05:48:27.246Z,0.12
2023-04-18T05:50:53.891Z,0.17
2023-04-18T05:53:20.509Z,0.37
2023-04-18T05:55:49.962Z,0.38
2023-04-18T05:58:18.022Z,0.42
2023-04-18T06:00:44.668Z,0.61
2023-04-18T06:03:11.794Z,0.65
2023-04-18T06:05:38.826Z,0.73
2023-04-18T06:08:06.104Z,0.93
2023-04-18T06:10:33.188Z,0.99
2023-04-18T06:13:00.964Z,1.00
2023-04-18T06:15:27.657Z,1.20
2023-04-18T06:17:54.497Z,1.35
2023-04-18T06:20:23.157Z,1.40
2023-04-18T06:22:49.772Z,1.56
2023-04-18T06:25:16.664Z,1.79
2023-04-18T06:27:43.301Z,1.81
2023-04-18T06:30:11.753Z,1.94
2023-04-18T06:32:39.776Z,2.30
2023-04-18T06:35:06.831Z,2.29
2023-04-18T06:37:33.662Z,2.37
2023-04-18T06:40:00.294Z,2.66
2023-04-18T06:42:27.183Z,2.63
2023-04-18T06:44:55.130Z,2.86
2023-04-18T06:47:23.207Z,3.50
2023-04-18T06:49:50.331Z,3.74
2023-04-18T06:52:16.966Z,3.80
2023-04-18T06:54:43.588Z,4.11
2023-04-18T06:57:11.957Z,4.31
2023-04-18T06:59:39.933Z,4.61
2023-04-18T07:02:07.137Z,4.72
2023-04-18T07:04:34.165Z,5.03
2023-04-18T07:07:02.022Z,5.51
2023-04-18T07:09:28.643Z,5.83
2023-04-18T07:11:55.329Z,5.80
2023-04-18T07:14:25.356Z,5.91
2023-04-18T07:16:52.164Z,6.24
2023-04-18T07:19:18.967Z,6.37
2023-04-18T07:21:46.123Z,6.64
2023-04-18T07:24:13.356Z,6.85
2023-04-18T07:26:40.958Z,6.76
2023-04-18T07:29:07.639Z,6.94
2023-04-18T07:31:36.241Z,6.99
2023-04-18T07:34:04.371Z,7.12
2023-04-18T07:36:31.408Z,7.27
2023-04-18T07:38:58.092Z,7.36
2023-04-18T07:41:24.699Z,7.66
2023-04-18T07:43:51.346Z,7.67
2023-04-18T07:46:18.161Z,7.93
2023-04-18T07:48:45.262Z,8.16
2023-04-18T07:51:13.441Z,8.32
2023-04-18T07:53:41.213Z,8.58
2023-04-18T07:56:09.053Z,8.65
2023-04-18T07:58:37.418Z,8.84
2023-04-18T08:01:04.328Z,9.02
2023-04-18T08:03:31.087Z,9.03
2023-04-18T08:05:57.757Z,9.21
2023-04-18T08:08:24.380Z,9.29
2023-04-18T08:10:51.398Z,9.20
2023-04-18T08:13:19.311Z,9.35
2023-04-18T08:15:46.839Z,9.49
2023-04-18T08:18:13.620Z,9.69
2023-04-18T08:20:41.043Z,9.74
2023-04-18T08:23:11.297Z,9.82
2023-04-18T08:25:39.585Z,9.93
2023-04-18T08:28:06.523Z,9.76
2023-04-18T08:30:33.222Z,10.00
2023-04-18T08:33:00.918Z,10.04
2023-04-18T08:35:27.587Z,10.12
2023-04-18T08:37:54.289Z,10.26
2023-04-18T08:40:22.183Z,10.22
2023-04-18T08:42:51.975Z,10.46
2023-04-18T08:45:20.010Z,10.46
2023-04-18T08:47:47.831Z,10.57
2023-04-18T08:50:14.629Z,10.58
2023-04-18T08:52:50.148Z,10.47
2023-04-18T08:55:18.201Z,10.66
2023-04-18T08:57:44.931Z,10.64
2023-04-18T09:00:12.150Z,10.76
2023-04-18T09:02:45.033Z,10.73
2023-04-18T09:05:12.078Z,10.65
2023-04-18T09:07:38.719Z,10.70
2023-04-18T09:10:05.675Z,10.57
2023-04-18T09:12:32.744Z,10.79
2023-04-18T09:15:16.499Z,10.73
2023-04-18T09:17:51.351Z,11.04
2023-04-18T09:20:34.987Z,11.03
2023-04-18T09:23:04.356Z,11.13
2023-04-18T09:25:42.136Z,11.16
2023-04-18T09:28:24.331Z,11.08
2023-04-18T09:30:53.726Z,11.25
2023-04-18T09:33:33.976Z,10.88
2023-04-18T09:36:21.327Z,11.15
2023-04-18T09:38:55.961Z,11.23
2023-04-18T09:41:23.634Z,11.19
2023-04-18T09:43:52.089Z,11.19
2023-04-18T09:46:18.894Z,11.34
2023-04-18T09:48:47.345Z,11.49
2023-04-18T09:51:18.817Z,11.22
2023-04-18T09:53:47.455Z,11.30
2023-04-18T09:56:26.116Z,11.36
2023-04-18T09:59:03.652Z,11.54
2023-04-18T10:01:31.025Z,11.67
2023-04-18T10:04:01.336Z,11.52
2023-04-18T10:06:29.125Z,11.80
2023-04-18T10:08:56.384Z,11.84
2023-04-18T10:11:25.642Z,11.90
2023-04-18T10:13:57.522Z,12.05
2023-04-18T10:16:24.757Z,11.83
2023-04-18T10:18:51.927Z,11.92
2023-04-18T10:21:18.560Z,11.97
2023-04-18T10:23:48.923Z,11.96
2023-04-18T10:26:16.106Z,12.05
2023-04-18T10:29:00.165Z,11.99
2023-04-18T10:31:28.580Z,12.17
2023-04-18T10:36:29.010Z,12.13
2023-04-18T10:39:01.997Z,12.10
2023-04-18T10:41:30.958Z,12.17
2023-04-18T10:44:15.833Z,12.21
2023-04-18T10:47:08.852Z,12.09
2023-04-18T10:49:36.864Z,12.22
2023-04-18T10:52:06.079Z,11.91
2023-04-18T10:54:56.456Z,12.21
2023-04-18T10:57:25.064Z,12.38
2023-04-18T10:59:52.935Z,12.49
2023-04-18T11:02:28.656Z,12.63
2023-04-18T11:05:04.848Z,12.64
2023-04-18T11:07:45.064Z,12.73
2023-04-18T11:10:13.109Z,12.68
2023-04-18T11:12:41.156Z,12.78
2023-04-18T11:15:22.595Z,12.73
2023-04-18T11:18:03.112Z,12.61
2023-04-18T11:20:38.558Z,12.57
2023-04-18T11:23:21.020Z,12.43
2023-04-18T11:25:51.469Z,12.71
2023-04-18T11:28:22.241Z,12.89
2023-04-18T11:30:49.906Z,13.04
2023-04-18T11:33:18.040Z,12.72
2023-04-18T11:35:46.195Z,12.71
2023-04-18T11:38:15.875Z,12.80
2023-04-18T11:40:49.396Z,12.67
2023-04-18T11:43:21.516Z,12.90
2023-04-18T11:45:59.125Z,12.87
2023-04-18T11:48:39.445Z,13.00
2023-04-18T11:51:07.558Z,12.96
2023-04-18T11:53:38.807Z,13.06
2023-04-18T11:56:05.951Z,13.18
2023-04-18T11:58:36.342Z,12.97
2023-04-18T12:01:16.967Z,13.15
2023-04-18T12:03:59.238Z,13.07
2023-04-18T12:06:28.356Z,13.13
2023-04-18T12:09:01.127Z,13.10
2023-04-18T12:11:27.797Z,13.16
2023-04-18T12:13:56.894Z,13.25
2023-04-18T12:16:29.324Z,13.16
2023-04-18T12:19:02.069Z,13.27
2023-04-18T12:21:30.747Z,13.05
2023-04-18T12:23:58.598Z,13.05
2023-04-18T12:26:26.852Z,13.29
2023-04-18T12:28:54.107Z,13.30
2023-04-18T12:31:22.408Z,13.44
2023-04-18T12:33:51.704Z,13.36
2023-04-18T12:36:18.380Z,13.40
2023-04-18T12:38:46.913Z,13.27
2023-04-18T12:41:13.513Z,13.19
2023-04-18T12:43:40.231Z,13.37
2023-04-18T12:46:06.868Z,13.38
2023-04-18T12:48:35.985Z,13.60
2023-04-18T12:51:02.584Z,13.59
2023-04-18T12:53:29.384Z,13.53
2023-04-18T12:55:56.025Z,13.52
2023-04-18T12:58:22.957Z,13.31
2023-04-18T13:00:49.686Z,13.47
2023-04-18T13:03:16.693Z,13.54
2023-04-18T13:05:44.744Z,13.56
2023-04-18T13:08:17.228Z,13.60
2023-04-18T13:10:46.732Z,13.48
2023-04-18T13:13:14.898Z,13.68
2023-04-18T13:15:41.576Z,13.57
2023-04-18T13:18:09.392Z,13.68
2023-04-18T13:20:38.065Z,13.66
2023-04-18T13:23:05.174Z,13.69
2023-04-18T13:25:31.897Z,13.83
2023-04-18T13:27:58.838Z,13.62
2023-04-18T13:30:25.576Z,13.93
2023-04-18T13:32:53.657Z,13.98
2023-04-18T13:35:20.435Z,14.12
2023-04-18T13:37:48.413Z,14.28
2023-04-18T13:40:15.740Z,13.99
2023-04-18T13:42:43.186Z,14.20
2023-04-18T13:45:10.242Z,14.15
2023-04-18T13:47:37.796Z,14.10
2023-04-18T13:50:06.901Z,14.32
2023-04-18T13:52:33.514Z,14.09
2023-04-18T13:55:00.164Z,14.10
2023-04-18T13:57:28.429Z,14.09
2023-04-18T13:59:55.047Z,14.30
2023-04-18T14:02:21.763Z,14.39
2023-04-18T14:04:49.921Z,14.38
2023-04-18T14:07:16.625Z,14.40
2023-04-18T14:09:44.389Z,14.33
2023-04-18T14:12:11.009Z,14.49
2023-04-18T14:14:37.638Z,14.58
2023-04-18T14:17:04.229Z,14.56
2023-04-18T14:19:30.998Z,14.66
2023-04-18T14:21:57.666Z,14.73
2023-04-18T14:24:24.272Z,14.75
2023-04-18T14:26:50.888Z,14.83
2023-04-18T14:29:17.550Z,14.81
2023-04-18T14:31:44.286Z,15.01
2023-04-18T14:34:10.950Z,15.12
2023-04-18T14:36:38.637Z,15.23
2023-04-18T14:39:05.581Z,15.38
2023-04-18T14:41:33.708Z,15.55
2023-04-18T14:44:00.460Z,15.78
2023-04-18T14:46:29.410Z,16.00
2023-04-18T14:48:59.105Z,15.95
2023-04-18T14:51:27.673Z,16.16
2023-04-18T14:53:54.422Z,16.22
2023-04-18T14:56:22.118Z,16.09
2023-04-18T14:58:50.025Z,16.20
2023-04-18T15:01:19.682Z,16.26
2023-04-18T15:03:46.545Z,16.04
2023-04-18T15:06:13.319Z,16.28
2023-04-18T15:08:39.989Z,16.43
2023-04-18T15:11:09.009Z,16.16
2023-04-18T15:13:37.586Z,16.17
2023-04-18T15:16:04.363Z,15.94
2023-04-18T15:18:31.047Z,15.77
2023-04-18T15:21:01.157Z,15.85
2023-04-18T15:23:27.985Z,15.96
2023-04-18T15:25:54.897Z,15.81
2023-04-18T15:28:21.501Z,15.97
2023-04-18T15:30:48.124Z,16.13
2023-04-18T15:33:15.755Z,16.02
2023-04-18T15:35:43.549Z,15.78
2023-04-18T15:38:10.998Z,15.74
2023-04-18T15:40:38.091Z,15.76
2023-04-18T15:43:04.913Z,15.37
2023-04-18T15:45:31.780Z,15.59
2023-04-18T15:48:00.003Z,15.85
2023-04-18T15:50:26.771Z,15.58
2023-04-18T15:52:53.409Z,15.55
2023-04-18T15:55:20.046Z,15.56
2023-04-18T15:57:47.000Z,15.58
2023-04-18T16:00:16.250Z,15.31
2023-04-18T16:02:46.558Z,15.46
2023-04-18T16:05:13.499Z,15.66
2023-04-18T16:07:41.413Z,15.82
2023-04-18T16:10:10.524Z,15.98
2023-04-18T16:12:39.122Z,15.49
2023-04-18T16:15:07.325Z,15.42
2023-04-18T16:17:34.478Z,15.42
2023-04-18T16:20:01.377Z,15.50
2023-04-18T16:22:28.019Z,15.61
2023-04-18T16:24:54.827Z,15.55
2023-04-18T16:27:21.774Z,15.33
2023-04-18T16:29:49.656Z,15.19
2023-04-18T16:32:16.310Z,15.13
2023-04-18T16:34:42.907Z,15.16
2023-04-18T16:37:10.911Z,15.32
2023-04-18T16:39:37.700Z,15.36
2023-04-18T16:42:05.813Z,15.15
2023-04-18T16:44:34.572Z,15.15
2023-04-18T16:47:02.542Z,15.22
2023-04-18T16:49:30.697Z,15.10
2023-04-18T16:51:57.774Z,14.91
2023-04-18T16:54:25.720Z,14.73
2023-04-18T16:56:53.603Z,14.62
2023-04-18T16:59:20.278Z,14.52
2023-04-18T17:01:47.006Z,14.31
2023-04-18T17:04:15.583Z,14.08
2023-04-18T17:06:43.729Z,13.89
2023-04-18T17:09:13.398Z,13.80
2023-04-18T17:11:42.272Z,13.75
2023-04-18T17:14:10.608Z,13.61
2023-04-18T17:16:38.684Z,13.49
2023-04-18T17:19:05.714Z,13.25
2023-04-18T17:21:34.380Z,12.99
2023-04-18T17:24:03.773Z,12.87
2023-04-18T17:26:31.014Z,12.71
2023-04-18T17:28:57.890Z,12.55
2023-04-18T17:31:24.599Z,12.44
2023-04-18T17:33:51.289Z,12.32
2023-04-18T17:36:18.055Z,12.06
2023-04-18T17:38:50.055Z,11.98
2023-04-18T17:41:21.212Z,11.82
2023-04-18T17:43:51.983Z,11.81
2023-04-18T17:46:19.800Z,11.76
2023-04-18T17:48:47.129Z,11.58
2023-04-18T17:51:17.499Z,11.40
2023-04-18T17:53:44.113Z,11.32
2023-04-18T17:56:11.271Z,11.17
2023-04-18T17:58:37.966Z,11.17
2023-04-18T18:01:14.372Z,11.06
2023-04-18T18:03:42.676Z,10.89
2023-04-18T18:06:11.876Z,10.73
2023-04-18T18:08:38.833Z,10.64
2023-04-18T18:11:06.222Z,10.59
2023-04-18T18:13:33.014Z,10.47
2023-04-18T18:15:59.777Z,10.34
2023-04-18T18:18:26.466Z,10.24
2023-04-18T18:20:53.204Z,10.05
2023-04-18T18:23:20.938Z,9.84
2023-04-18T18:25:48.868Z,9.73
2023-04-18T18:28:15.727Z,9.59
2023-04-18T18:30:42.911Z,9.42
2023-04-18T18:33:09.750Z,9.29
2023-04-18T18:35:36.574Z,9.11
2023-04-18T18:38:03.222Z,8.74
2023-04-18T18:40:30.082Z,8.00
2023-04-18T18:42:57.461Z,8.22
2023-04-18T18:45:24.251Z,8.30
2023-04-18T18:47:52.384Z,7.78
2023-04-18T18:50:19.607Z,7.53
2023-04-18T18:52:46.262Z,7.49
2023-04-18T18:55:13.038Z,7.02
2023-04-18T18:57:39.646Z,7.21
2023-04-18T19:00:10.934Z,7.01
2023-04-18T19:02:39.915Z,6.95
2023-04-18T19:05:07.117Z,7.11
2023-04-18T19:07:35.188Z,7.07
2023-04-18T19:10:02.028Z,7.24
2023-04-18T19:12:29.253Z,7.27
2023-04-18T19:14:55.904Z,6.88
2023-04-18T19:17:24.785Z,6.99
2023-04-18T19:19:53.056Z,6.74
2023-04-18T19:22:19.648Z,6.35
2023-04-18T19:24:46.299Z,6.47
2023-04-18T19:27:13.227Z,6.07
2023-04-18T19:29:39.830Z,5.66
2023-04-18T19:32:06.540Z,5.81
2023-04-18T19:34:34.413Z,5.51
2023-04-18T19:37:03.652Z,5.30
2023-04-18T19:39:30.518Z,5.47
2023-04-18T19:41:57.169Z,5.15
2023-04-18T19:44:23.785Z,4.83
2023-04-18T19:46:50.431Z,4.97
2023-04-18T19:49:17.546Z,4.86
2023-04-18T19:51:44.797Z,4.56
2023-04-18T19:54:11.430Z,4.58
2023-04-18T19:56:38.069Z,4.62
2023-04-18T19:59:06.023Z,4.40
2023-04-18T20:01:32.804Z,4.64
2023-04-18T20:04:00.608Z,4.47
2023-04-18T20:06:27.731Z,4.49
2023-04-18T20:08:54.663Z,4.34
2023-04-18T20:11:22.169Z,4.05
2023-04-18T20:13:49.022Z,4.21
2023-04-18T20:16:16.926Z,4.02
2023-04-18T20:18:44.381Z,4.15
2023-04-18T20:21:11.251Z,3.97
2023-04-18T20:23:39.435Z,3.87
2023-04-18T20:26:08.276Z,3.97
2023-04-18T20:28:36.253Z,3.55
2023-04-18T20:31:03.782Z,3.67
2023-04-18T20:33:30.470Z,3.44
2023-04-18T20:35:58.845Z,3.31
2023-04-18T20:38:29.407Z,3.40
2023-04-18T20:40:58.060Z,3.11
2023-04-18T20:43:24.903Z,3.10
2023-04-18T20:45:51.736Z,2.91
2023-04-18T20:48:18.925Z,2.54
2023-04-18T20:50:51.323Z,2.71
2023-04-18T20:53:22.541Z,2.43
2023-04-18T20:55:49.237Z,2.47
2023-04-18T20:58:16.310Z,2.55
2023-04-18T21:00:44.598Z,2.18
2023-04-18T21:03:15.193Z,2.24
2023-04-18T21:05:43.684Z,2.17
2023-04-18T21:08:13.531Z,1.94
2023-04-18T21:10:40.229Z,2.07
2023-04-18T21:13:06.946Z,1.72
2023-04-18T21:15:36.650Z,1.68
2023-04-18T21:18:03.400Z,1.85
2023-04-18T21:20:30.073Z,1.44
2023-04-18T21:22:56.720Z,1.26
2023-04-18T21:25:23.407Z,1.53
2023-04-18T21:27:50.946Z,1.40
2023-04-18T21:30:19.117Z,1.44
2023-04-18T21:32:47.177Z,1.51
2023-04-18T21:35:13.869Z,1.29
2023-04-18T21:37:40.534Z,1.20
2023-04-18T21:40:08.974Z,1.26
2023-04-18T21:42:37.575Z,1.10
2023-04-18T21:45:06.441Z,1.08
2023-04-18T21:47:34.236Z,1.28
2023-04-18T21:50:02.416Z,1.12
2023-04-18T21:52:29.103Z,1.11
2023-04-18T21:54:56.091Z,1.17
2023-04-18T21:57:22.730Z,1.06
2023-04-18T21:59:49.361Z,0.95
2023-04-18T22:02:16.240Z,1.00
2023-04-18T22:04:44.253Z,0.84
2023-04-18T22:07:12.349Z,0.61
2023-04-18T22:09:39.065Z,0.69
2023-04-18T22:12:05.777Z,0.84
2023-04-18T22:14:32.402Z,0.59
2023-04-18T22:17:02.999Z,0.54
2023-04-18T22:19:31.286Z,0.71
2023-04-18T22:21:59.153Z,0.52
2023-04-18T22:24:26.050Z,0.44
2023-04-18T22:26:53.104Z,0.48
2023-04-18T22:29:19.707Z,0.09
2023-04-18T22:31:46.368Z,0.18
2023-04-18T22:34:13.176Z,0.15
2023-04-18T22:36:39.990Z,-0.11
2023-04-18T22:39:07.467Z,0.07
2023-04-18T22:41:34.124Z,-0.12
2023-04-18T22:44:00.778Z,-0.16
2023-04-18T22:46:28.063Z,0.05
2023-04-18T22:48:58.226Z,-0.16
2023-04-18T22:51:24.832Z,-0.31
2023-04-18T22:53:51.430Z,-0.20
2023-04-18T22:56:18.093Z,-0.37
2023-04-18T22:58:44.690Z,-0.43
2023-04-18T23:01:11.512Z,-0.33
2023-04-18T23:03:38.389Z,-0.59
2023-04-18T23:06:07.515Z,-0.44
2023-04-18T23:08:34.172Z,-0.36
2023-04-18T23:11:00.829Z,-0.45
2023-04-18T23:13:27.563Z,-0.24
2023-04-18T23:15:54.347Z,-0.27
2023-04-18T23:18:21.004Z,-0.50
2023-04-18T23:20:47.596Z,-0.32
2023-04-18T23:23:14.482Z,-0.35
2023-04-18T23:25:41.122Z,-0.43
2023-04-18T23:28:09.222Z,-0.25
2023-04-18T23:30:37.138Z,-0.37
2023-04-18T23:33:05.090Z,-0.46
2023-04-18T23:35:32.841Z,-0.21
2023-04-18T23:37:59.495Z,-0.30
2023-04-18T23:40:26.131Z,-0.28
2023-04-18T23:42:54.076Z,-0.09
2023-04-18T23:45:20.715Z,-0.22
2023-04-18T23:47:47.503Z,-0.30
2023-04-18T23:50:15.294Z,-0.24
2023-04-18T23:52:41.912Z,-0.49
2023-04-18T23:55:08.961Z,-0.41
2023-04-18T23:57:35.708Z,-0.30
